Time;durP1;ratioP1;P1;durP2;ratioP2;P2;SDS_P1;SDS_P2;PMS_P1;PMS_P2;Temp;Humidity;BMP_temperature;BMP_pressure;BME280_temperature;BME280_humidity;BME280_pressure;Samples;Min_cycle;Max_cycle;Signal;HPM_P1;HPM_P2
2022/09/15 00:00:05;;;;;;;3.60;2.10;;;;;;;;;;5069683;28;20095;-75
2022/09/15 00:02:32;;;;;;;6.00;2.42;;;;;;;;;;5068885;28;20084;-75
2022/09/15 00:05:00;;;;;;;6.57;2.60;;;;;;;;;;5076514;28;20127;-74
2022/09/15 00:07:27;;;;;;;5.13;2.30;;;;;;;;;;5063091;28;20103;-75
2022/09/15 00:09:54;;;;;;;5.05;2.60;;;;;;;;;;5073934;28;20098;-75
2022/09/15 00:12:21;;;;;;;7.32;2.78;;;;;;;;;;5083211;28;20045;-75
2022/09/15 00:14:48;;;;;;;4.53;2.45;;;;;;;;;;5078944;28;20064;-74
2022/09/15 00:17:16;;;;;;;5.28;2.40;;;;;;;;;;5071217;28;20052;-74
2022/09/15 00:19:43;;;;;;;5.65;2.50;;;;;;;;;;5069922;28;20049;-74
2022/09/15 00:22:11;;;;;;;6.10;3.05;;;;;;;;;;5073128;28;20102;-74
2022/09/15 00:24:39;;;;;;;9.38;2.85;;;;;;;;;;5091868;28;20041;-74
2022/09/15 00:27:07;;;;;;;6.03;3.20;;;;;;;;;;5070465;28;20057;-74
2022/09/15 00:29:34;;;;;;;6.97;2.95;;;;;;;;;;5068145;28;20053;-74
2022/09/15 00:32:02;;;;;;;8.90;3.15;;;;;;;;;;5065089;28;20049;-74
2022/09/15 00:34:29;;;;;;;5.40;2.83;;;;;;;;;;5076290;28;20083;-75
2022/09/15 00:36:56;;;;;;;8.60;3.38;;;;;;;;;;5072121;28;20049;-74
2022/09/15 00:39:24;;;;;;;7.53;3.20;;;;;;;;;;5078683;28;20106;-74
2022/09/15 00:41:51;;;;;;;7.82;3.47;;;;;;;;;;5088132;28;20048;-74
2022/09/15 00:44:18;;;;;;;10.90;3.63;;;;;;;;;;5076738;28;20051;-74
2022/09/15 00:46:48;;;;;;;5.03;3.35;;;;;;;;;;5073836;28;20048;-74
2022/09/15 00:49:36;;;;;;;8.52;3.60;;;;;;;;;;5073626;28;20041;-74
2022/09/15 00:52:09;;;;;;;6.30;3.35;;;;;;;;;;5071292;28;20053;-74
2022/09/15 00:54:42;;;;;;;8.38;3.53;;;;;;;;;;5080375;28;20053;-74
2022/09/15 00:57:15;;;;;;;8.82;3.67;;;;;;;;;;5078624;28;20057;-74
2022/09/15 00:59:42;;;;;;;8.13;3.67;;;;;;;;;;5079099;28;20057;-74
2022/09/15 01:02:17;;;;;;;5.75;3.38;;;;;;;;;;5074000;28;20052;-75
2022/09/15 01:04:44;;;;;;;14.88;4.13;;;;;;;;;;5074431;28;20048;-75
2022/09/15 01:07:13;;;;;;;7.63;3.13;;;;;;;;;;5070292;28;20136;-73
2022/09/15 01:09:50;;;;;;;13.35;3.95;;;;;;;;;;5071231;28;20813;-74
2022/09/15 01:12:17;;;;;;;6.40;3.28;;;;;;;;;;5079332;28;20075;-74
2022/09/15 01:14:45;;;;;;;9.10;3.63;;;;;;;;;;5078071;28;20144;-74
2022/09/15 01:17:30;;;;;;;7.97;3.88;;;;;;;;;;5074755;28;20045;-75
2022/09/15 01:20:27;;;;;;;6.03;3.30;;;;;;;;;;5077534;28;20043;-75
2022/09/15 01:23:01;;;;;;;5.15;2.85;;;;;;;;;;5075539;28;20033;-74
2022/09/15 01:25:32;;;;;;;5.22;2.97;;;;;;;;;;5079128;28;20094;-73
2022/09/15 01:27:59;;;;;;;10.25;3.40;;;;;;;;;;5079836;28;20040;-74
2022/09/15 01:30:26;;;;;;;7.40;3.13;;;;;;;;;;5074648;28;20080;-73
2022/09/15 01:33:05;;;;;;;7.18;3.58;;;;;;;;;;5066330;28;20046;-74
2022/09/15 01:35:41;;;;;;;8.50;3.00;;;;;;;;;;5080011;28;20084;-74
2022/09/15 01:38:08;;;;;;;5.32;3.10;;;;;;;;;;5072230;28;20868;-74
2022/09/15 01:40:38;;;;;;;6.05;3.30;;;;;;;;;;5057824;28;20107;-74
2022/09/15 01:43:07;;;;;;;7.32;3.42;;;;;;;;;;5066963;28;20052;-74
2022/09/15 01:45:35;;;;;;;7.78;3.25;;;;;;;;;;5079685;28;20267;-74
2022/09/15 01:48:04;;;;;;;7.53;3.40;;;;;;;;;;5073054;28;21125;-74
2022/09/15 01:50:40;;;;;;;9.68;3.38;;;;;;;;;;5075036;28;20056;-74
2022/09/15 01:53:12;;;;;;;5.40;2.88;;;;;;;;;;5073440;28;20053;-75
2022/09/15 01:55:54;;;;;;;12.85;3.40;;;;;;;;;;5083022;28;20049;-75
2022/09/15 01:58:21;;;;;;;6.82;2.92;;;;;;;;;;5076606;28;20060;-73
2022/09/15 02:01:12;;;;;;;6.50;3.08;;;;;;;;;;5074681;28;20044;-74
2022/09/15 02:03:43;;;;;;;8.23;3.17;;;;;;;;;;5073214;28;20056;-74
2022/09/15 02:06:18;;;;;;;9.85;3.33;;;;;;;;;;5080970;28;20076;-74
2022/09/15 02:08:53;;;;;;;9.90;2.80;;;;;;;;;;5077195;28;20049;-75
2022/09/15 02:11:27;;;;;;;5.70;3.17;;;;;;;;;;5085017;28;20084;-75
2022/09/15 02:13:58;;;;;;;9.05;3.20;;;;;;;;;;5078415;28;20041;-74
2022/09/15 02:16:28;;;;;;;6.60;2.63;;;;;;;;;;5074439;28;20087;-75
2022/09/15 02:18:59;;;;;;;5.65;2.58;;;;;;;;;;5085923;28;20180;-74
2022/09/15 02:21:28;;;;;;;6.97;2.63;;;;;;;;;;5074838;28;20049;-75
2022/09/15 02:23:58;;;;;;;10.40;2.83;;;;;;;;;;5073482;28;20037;-74
2022/09/15 02:26:27;;;;;;;8.40;3.30;;;;;;;;;;5071446;28;20049;-74
2022/09/15 02:28:55;;;;;;;5.80;2.75;;;;;;;;;;5081254;28;20045;-75
2022/09/15 02:31:23;;;;;;;5.55;2.70;;;;;;;;;;5075764;28;20045;-75
2022/09/15 02:33:55;;;;;;;7.40;2.47;;;;;;;;;;5079452;28;20053;-74
2022/09/15 02:36:24;;;;;;;6.60;2.50;;;;;;;;;;5076410;28;20076;-74
2022/09/15 02:38:53;;;;;;;5.75;2.30;;;;;;;;;;5074723;28;20042;-75
2022/09/15 02:41:21;;;;;;;4.60;2.30;;;;;;;;;;5080702;28;20045;-74
2022/09/15 02:43:49;;;;;;;6.70;2.25;;;;;;;;;;5085565;28;20127;-74
2022/09/15 02:46:18;;;;;;;6.68;2.38;;;;;;;;;;5082507;28;20049;-74
2022/09/15 02:48:45;;;;;;;9.25;2.70;;;;;;;;;;5072405;28;20519;-75
2022/09/15 02:51:13;;;;;;;3.78;2.40;;;;;;;;;;5079175;28;20773;-74
2022/09/15 02:53:41;;;;;;;5.93;2.42;;;;;;;;;;5075471;28;20053;-74
2022/09/15 02:56:08;;;;;;;6.20;2.70;;;;;;;;;;5079531;28;20045;-74
2022/09/15 02:58:36;;;;;;;6.22;2.55;;;;;;;;;;5074145;28;20775;-75
2022/09/15 03:01:03;;;;;;;3.80;2.20;;;;;;;;;;5080404;28;22125;-74
2022/09/15 03:03:32;;;;;;;6.03;2.35;;;;;;;;;;5088049;28;20055;-75
2022/09/15 03:06:15;;;;;;;4.97;2.58;;;;;;;;;;5080321;28;20057;-75
2022/09/15 03:08:52;;;;;;;3.67;2.13;;;;;;;;;;5079973;28;20061;-74
2022/09/15 03:11:21;;;;;;;7.18;2.28;;;;;;;;;;5088085;28;20052;-74
2022/09/15 03:13:52;;;;;;;3.67;1.92;;;;;;;;;;5079888;28;20247;-74
2022/09/15 03:16:19;;;;;;;4.38;2.00;;;;;;;;;;5082858;28;20053;-74
2022/09/15 03:18:47;;;;;;;4.32;2.33;;;;;;;;;;5100433;28;20672;-74
2022/09/15 03:21:15;;;;;;;7.70;2.20;;;;;;;;;;5088686;28;20059;-74
2022/09/15 03:23:43;;;;;;;5.05;2.20;;;;;;;;;;5084414;28;20060;-74
2022/09/15 03:26:11;;;;;;;4.68;2.30;;;;;;;;;;5082650;28;21102;-75
2022/09/15 03:28:38;;;;;;;7.50;2.25;;;;;;;;;;5082874;28;20882;-74
2022/09/15 03:31:06;;;;;;;3.58;1.67;;;;;;;;;;5082843;28;20041;-74
2022/09/15 03:33:34;;;;;;;5.18;2.15;;;;;;;;;;5084192;28;20128;-74
2022/09/15 03:36:01;;;;;;;4.32;2.13;;;;;;;;;;5075744;28;20053;-74
2022/09/15 03:38:29;;;;;;;4.85;1.95;;;;;;;;;;5086323;28;20736;-75
2022/09/15 03:41:09;;;;;;;4.00;1.98;;;;;;;;;;5081004;28;20045;-75
2022/09/15 03:43:37;;;;;;;5.20;2.10;;;;;;;;;;5074855;28;20041;-74
2022/09/15 03:46:05;;;;;;;8.23;1.90;;;;;;;;;;5075094;28;20083;-75
2022/09/15 03:48:33;;;;;;;1.90;1.58;;;;;;;;;;5074743;28;20053;-75
2022/09/15 03:51:02;;;;;;;5.20;1.63;;;;;;;;;;5076056;28;20095;-74
2022/09/15 03:53:30;;;;;;;6.22;1.90;;;;;;;;;;5080698;28;20053;-74
2022/09/15 03:56:06;;;;;;;4.00;1.60;;;;;;;;;;5080575;28;20075;-74
2022/09/15 03:58:33;;;;;;;4.07;1.60;;;;;;;;;;5079598;28;20091;-74
2022/09/15 04:01:00;;;;;;;3.55;1.73;;;;;;;;;;5074468;28;20064;-74
2022/09/15 04:03:28;;;;;;;8.65;1.70;;;;;;;;;;5076919;28;20953;-74
2022/09/15 04:05:56;;;;;;;5.93;2.08;;;;;;;;;;5084410;28;20091;-76
2022/09/15 04:08:23;;;;;;;3.10;1.55;;;;;;;;;;5085820;28;20049;-74
2022/09/15 04:10:51;;;;;;;7.70;2.05;;;;;;;;;;5080357;28;20880;-75
2022/09/15 04:13:19;;;;;;;5.38;1.60;;;;;;;;;;5077694;28;20083;-75
2022/09/15 04:15:47;;;;;;;7.97;1.70;;;;;;;;;;5078574;28;20107;-75
2022/09/15 04:18:14;;;;;;;7.18;1.88;;;;;;;;;;5085385;28;20099;-75
2022/09/15 04:20:41;;;;;;;3.00;1.63;;;;;;;;;;5078977;28;20045;-74
2022/09/15 04:23:10;;;;;;;3.60;1.52;;;;;;;;;;5078149;28;20041;-74
2022/09/15 04:25:38;;;;;;;4.13;1.52;;;;;;;;;;5082360;28;20047;-74
2022/09/15 04:28:05;;;;;;;7.07;1.85;;;;;;;;;;5083022;28;21167;-75
2022/09/15 04:30:32;;;;;;;4.28;1.65;;;;;;;;;;5092750;28;20036;-74
2022/09/15 04:32:59;;;;;;;3.58;1.83;;;;;;;;;;5085556;28;20049;-75
2022/09/15 04:35:27;;;;;;;6.22;1.95;;;;;;;;;;5078034;28;20065;-74
2022/09/15 04:37:55;;;;;;;6.85;1.88;;;;;;;;;;5079012;28;20037;-74
2022/09/15 04:40:22;;;;;;;7.15;1.60;;;;;;;;;;5081987;28;20083;-73
2022/09/15 04:42:49;;;;;;;5.57;1.70;;;;;;;;;;5082772;28;20037;-75
2022/09/15 04:45:16;;;;;;;4.10;1.30;;;;;;;;;;5083368;28;20047;-74
2022/09/15 04:47:47;;;;;;;7.03;1.75;;;;;;;;;;5086817;28;20056;-74
2022/09/15 04:50:14;;;;;;;3.97;1.67;;;;;;;;;;5080013;28;21831;-74
2022/09/15 04:52:41;;;;;;;12.50;1.40;;;;;;;;;;5091865;28;20053;-74
2022/09/15 04:55:08;;;;;;;3.72;1.55;;;;;;;;;;5086116;28;20045;-74
2022/09/15 04:57:35;;;;;;;5.00;1.65;;;;;;;;;;5078413;28;20113;-74
2022/09/15 05:00:05;;;;;;;3.95;1.33;;;;;;;;;;5089448;28;20040;-75
2022/09/15 05:02:34;;;;;;;4.57;1.38;;;;;;;;;;5079127;28;20055;-74
2022/09/15 05:05:02;;;;;;;3.88;1.33;;;;;;;;;;5086432;28;20761;-75
2022/09/15 05:07:29;;;;;;;4.80;1.38;;;;;;;;;;5078236;28;20136;-76
2022/09/15 05:09:56;;;;;;;7.32;1.42;;;;;;;;;;5079407;28;20054;-75
2022/09/15 05:12:23;;;;;;;5.35;1.27;;;;;;;;;;5077400;28;20046;-74
2022/09/15 05:14:50;;;;;;;3.20;1.15;;;;;;;;;;5086276;28;20848;-74
2022/09/15 05:17:17;;;;;;;4.50;1.02;;;;;;;;;;5080335;28;21006;-75
2022/09/15 05:19:45;;;;;;;4.15;1.38;;;;;;;;;;5079610;28;20134;-74
2022/09/15 05:22:12;;;;;;;2.70;1.30;;;;;;;;;;5078768;28;20611;-74
2022/09/15 05:24:39;;;;;;;4.97;1.40;;;;;;;;;;5088696;28;20049;-75
2022/09/15 05:27:06;;;;;;;8.98;1.20;;;;;;;;;;5080165;28;20041;-75
2022/09/15 05:29:33;;;;;;;5.90;1.48;;;;;;;;;;5077993;28;20044;-75
2022/09/15 05:32:01;;;;;;;2.00;1.00;;;;;;;;;;5089414;28;20219;-75
2022/09/15 05:34:28;;;;;;;4.55;1.40;;;;;;;;;;5087480;28;20848;-74
2022/09/15 05:36:56;;;;;;;3.67;1.30;;;;;;;;;;5082921;28;20075;-75
2022/09/15 05:39:23;;;;;;;6.80;1.35;;;;;;;;;;5087054;28;20075;-74
2022/09/15 05:41:50;;;;;;;4.22;1.20;;;;;;;;;;5080800;28;20059;-75
2022/09/15 05:44:20;;;;;;;5.47;1.38;;;;;;;;;;5083321;28;20108;-75
2022/09/15 05:46:47;;;;;;;3.80;1.40;;;;;;;;;;5081364;28;20041;-74
2022/09/15 05:49:15;;;;;;;6.93;1.15;;;;;;;;;;5079204;28;20057;-73
2022/09/15 05:51:42;;;;;;;5.57;1.10;;;;;;;;;;5087597;28;20099;-75
2022/09/15 05:54:10;;;;;;;6.90;1.45;;;;;;;;;;5091143;28;20104;-75
2022/09/15 05:56:37;;;;;;;6.60;1.23;;;;;;;;;;5090377;28;20052;-75
2022/09/15 05:59:04;;;;;;;5.40;1.50;;;;;;;;;;5085881;28;20041;-75
2022/09/15 06:01:32;;;;;;;6.28;1.23;;;;;;;;;;5086819;28;20057;-75
2022/09/15 06:03:59;;;;;;;3.40;0.90;;;;;;;;;;5083634;28;20033;-76
2022/09/15 06:06:26;;;;;;;5.97;1.40;;;;;;;;;;5080377;28;20041;-75
2022/09/15 06:08:55;;;;;;;3.80;1.20;;;;;;;;;;5088005;28;20071;-75
2022/09/15 06:11:26;;;;;;;1.67;0.95;;;;;;;;;;5085583;28;20056;-76
2022/09/15 06:13:53;;;;;;;4.63;1.40;;;;;;;;;;5086066;28;20056;-75
2022/09/15 06:16:22;;;;;;;5.93;1.50;;;;;;;;;;5084036;28;20107;-75
2022/09/15 06:18:50;;;;;;;5.70;1.30;;;;;;;;;;5086357;28;20121;-75
2022/09/15 06:21:20;;;;;;;4.93;1.40;;;;;;;;;;5090718;28;20025;-75
2022/09/15 06:24:02;;;;;;;3.42;1.20;;;;;;;;;;5084041;28;20071;-75
2022/09/15 06:26:29;;;;;;;7.60;1.50;;;;;;;;;;5086224;28;20052;-75
2022/09/15 06:29:00;;;;;;;6.63;1.20;;;;;;;;;;5090437;28;20036;-75
2022/09/15 06:31:29;;;;;;;4.18;1.30;;;;;;;;;;5083256;28;20041;-75
2022/09/15 06:33:57;;;;;;;4.75;1.25;;;;;;;;;;5085053;28;20068;-76
2022/09/15 06:36:25;;;;;;;3.95;1.20;;;;;;;;;;5091161;28;20066;-76
2022/09/15 06:38:53;;;;;;;3.53;1.30;;;;;;;;;;5078490;28;20033;-75
2022/09/15 06:41:21;;;;;;;5.70;1.20;;;;;;;;;;5087674;28;20162;-75
2022/09/15 06:43:48;;;;;;;3.42;1.20;;;;;;;;;;5093507;28;20037;-75
2022/09/15 06:46:17;;;;;;;9.35;1.25;;;;;;;;;;5094225;28;20063;-75
2022/09/15 06:48:45;;;;;;;3.13;0.88;;;;;;;;;;5082196;28;20049;-75
2022/09/15 06:51:15;;;;;;;3.28;1.20;;;;;;;;;;5093410;28;20078;-75
2022/09/15 06:53:43;;;;;;;3.75;1.20;;;;;;;;;;5089519;28;20054;-75
2022/09/15 06:56:12;;;;;;;5.03;1.30;;;;;;;;;;5088134;28;20037;-75
2022/09/15 06:58:40;;;;;;;2.83;1.10;;;;;;;;;;5081926;28;20597;-75
2022/09/15 07:01:09;;;;;;;3.15;1.08;;;;;;;;;;5086041;28;20064;-75
2022/09/15 07:03:37;;;;;;;4.13;1.10;;;;;;;;;;5078672;28;20098;-74
2022/09/15 07:06:06;;;;;;;3.90;1.20;;;;;;;;;;5076192;28;20045;-75
2022/09/15 07:08:34;;;;;;;5.25;1.50;;;;;;;;;;5085660;28;20524;-75
2022/09/15 07:11:01;;;;;;;6.55;1.33;;;;;;;;;;5084073;28;20043;-75
2022/09/15 07:13:28;;;;;;;3.92;1.02;;;;;;;;;;5092320;28;20048;-75
2022/09/15 07:15:57;;;;;;;10.30;1.48;;;;;;;;;;5085300;28;20052;-75
2022/09/15 07:18:25;;;;;;;12.05;1.80;;;;;;;;;;5088769;28;20072;-75
2022/09/15 07:20:52;;;;;;;4.95;1.33;;;;;;;;;;5081054;28;20045;-76
2022/09/15 07:23:20;;;;;;;4.25;1.30;;;;;;;;;;5088974;28;20134;-75
2022/09/15 07:25:47;;;;;;;5.47;1.27;;;;;;;;;;5090113;28;20076;-75
2022/09/15 07:28:14;;;;;;;3.05;0.82;;;;;;;;;;5086201;28;20052;-75
2022/09/15 07:30:43;;;;;;;3.85;1.02;;;;;;;;;;5090127;28;20057;-75
2022/09/15 07:33:11;;;;;;;6.82;1.15;;;;;;;;;;5098855;28;20045;-76
2022/09/15 07:35:41;;;;;;;10.18;1.17;;;;;;;;;;5084258;28;20076;-75
2022/09/15 07:38:09;;;;;;;3.67;1.10;;;;;;;;;;5090853;28;20059;-75
2022/09/15 07:40:37;;;;;;;7.40;1.00;;;;;;;;;;5088827;28;20029;-75
2022/09/15 07:43:06;;;;;;;3.25;1.08;;;;;;;;;;5084261;28;20052;-75
2022/09/15 07:45:34;;;;;;;9.15;1.70;;;;;;;;;;5086780;28;20037;-75
2022/09/15 07:48:02;;;;;;;5.22;1.00;;;;;;;;;;5083115;28;20100;-76
2022/09/15 07:50:29;;;;;;;7.43;1.23;;;;;;;;;;5086458;28;20071;-76
2022/09/15 07:52:57;;;;;;;6.60;1.65;;;;;;;;;;5091443;28;20881;-74
2022/09/15 07:55:24;;;;;;;6.00;1.27;;;;;;;;;;5069593;28;20180;-75
2022/09/15 07:58:02;;;;;;;8.00;1.52;;;;;;;;;;5077664;28;20044;-75
2022/09/15 08:00:30;;;;;;;6.95;1.27;;;;;;;;;;5076957;28;20052;-75
2022/09/15 08:02:57;;;;;;;4.90;1.08;;;;;;;;;;5076573;28;20100;-74
2022/09/15 08:05:27;;;;;;;8.00;1.27;;;;;;;;;;5079545;28;20099;-76
2022/09/15 08:07:55;;;;;;;7.68;1.17;;;;;;;;;;5078364;28;20091;-75
2022/09/15 08:10:24;;;;;;;6.15;1.40;;;;;;;;;;5083874;28;20041;-74
2022/09/15 08:12:51;;;;;;;7.80;1.33;;;;;;;;;;5086827;28;20132;-75
2022/09/15 08:15:18;;;;;;;4.80;1.23;;;;;;;;;;5083391;28;20829;-75
2022/09/15 08:17:45;;;;;;;3.92;0.90;;;;;;;;;;5095693;28;20063;-76
2022/09/15 08:20:13;;;;;;;9.93;1.23;;;;;;;;;;5085445;28;20145;-74
2022/09/15 08:22:41;;;;;;;4.80;1.15;;;;;;;;;;5081182;28;20076;-75
2022/09/15 08:25:08;;;;;;;3.80;0.80;;;;;;;;;;5078771;28;20037;-74
2022/09/15 08:27:35;;;;;;;2.55;0.80;;;;;;;;;;5092113;28;20045;-76
2022/09/15 08:30:04;;;;;;;7.38;1.20;;;;;;;;;;5102517;28;20040;-74
2022/09/15 08:32:31;;;;;;;3.70;0.82;;;;;;;;;;5086463;28;20068;-74
2022/09/15 08:34:58;;;;;;;4.97;1.45;;;;;;;;;;5076104;28;20046;-74
2022/09/15 08:37:25;;;;;;;1.90;0.82;;;;;;;;;;5088943;28;20938;-75
2022/09/15 08:39:52;;;;;;;2.53;0.95;;;;;;;;;;5075536;28;20857;-74
2022/09/15 08:42:20;;;;;;;5.40;0.90;;;;;;;;;;5078950;28;20915;-75
2022/09/15 08:44:51;;;;;;;8.93;1.17;;;;;;;;;;5090919;28;20053;-76
2022/09/15 08:47:29;;;;;;;3.30;0.80;;;;;;;;;;5074470;28;20037;-74
2022/09/15 08:50:15;;;;;;;4.13;1.00;;;;;;;;;;5086110;28;20127;-75
2022/09/15 08:52:48;;;;;;;4.32;0.90;;;;;;;;;;5083271;28;20049;-75
2022/09/15 08:55:22;;;;;;;5.70;1.38;;;;;;;;;;5076830;28;20053;-74
2022/09/15 08:57:52;;;;;;;2.75;1.02;;;;;;;;;;5077706;28;20044;-75
2022/09/15 09:00:19;;;;;;;4.60;1.10;;;;;;;;;;5077337;28;20033;-74
2022/09/15 09:02:57;;;;;;;6.20;0.90;;;;;;;;;;5080204;28;20045;-74
2022/09/15 09:05:28;;;;;;;3.92;1.17;;;;;;;;;;5080576;28;20060;-74
2022/09/15 09:07:58;;;;;;;4.13;1.15;;;;;;;;;;5082050;28;20049;-75
2022/09/15 09:10:31;;;;;;;6.25;1.10;;;;;;;;;;5083155;28;20036;-75
2022/09/15 09:13:14;;;;;;;3.25;1.10;;;;;;;;;;5083616;28;20056;-74
2022/09/15 09:15:44;;;;;;;8.77;1.20;;;;;;;;;;5081901;28;20537;-75
2022/09/15 09:18:15;;;;;;;6.15;1.25;;;;;;;;;;5080989;28;20076;-75
2022/09/15 09:20:42;;;;;;;5.18;0.90;;;;;;;;;;5078929;28;20056;-74
2022/09/15 09:23:20;;;;;;;9.00;1.25;;;;;;;;;;5083273;28;20049;-75
2022/09/15 09:25:48;;;;;;;4.13;1.20;;;;;;;;;;5081165;28;20048;-75
2022/09/15 09:28:31;;;;;;;8.95;1.20;;;;;;;;;;5074071;28;20488;-75
2022/09/15 09:31:05;;;;;;;2.75;0.80;;;;;;;;;;5082909;28;23068;-75
2022/09/15 09:33:43;;;;;;;3.00;0.80;;;;;;;;;;5081707;28;20124;-75
2022/09/15 09:36:14;;;;;;;6.30;0.88;;;;;;;;;;5075754;28;20049;-75
2022/09/15 09:38:43;;;;;;;4.30;1.02;;;;;;;;;;5097578;28;20049;-75
2022/09/15 09:41:13;;;;;;;2.63;1.05;;;;;;;;;;5081136;28;20049;-74
2022/09/15 09:43:42;;;;;;;4.82;1.00;;;;;;;;;;5089015;28;20104;-75
2022/09/15 09:46:15;;;;;;;4.72;1.10;;;;;;;;;;5089941;28;20045;-75
2022/09/15 09:48:48;;;;;;;10.02;0.93;;;;;;;;;;5077892;28;20057;-76
2022/09/15 09:51:34;;;;;;;7.40;1.30;;;;;;;;;;5082492;28;20052;-74
2022/09/15 09:54:23;;;;;;;2.22;0.75;;;;;;;;;;5079304;28;20850;-75
2022/09/15 09:56:51;;;;;;;5.47;1.30;;;;;;;;;;5077769;28;20111;-75
2022/09/15 09:59:39;;;;;;;3.00;0.98;;;;;;;;;;5086972;28;20071;-75
2022/09/15 10:02:15;;;;;;;7.18;1.40;;;;;;;;;;5081303;28;20029;-74
2022/09/15 10:04:44;;;;;;;3.70;1.13;;;;;;;;;;5083766;28;20060;-75
2022/09/15 10:07:12;;;;;;;2.05;0.77;;;;;;;;;;5093581;28;20045;-75
2022/09/15 10:09:39;;;;;;;4.97;1.10;;;;;;;;;;5079431;28;20056;-75
2022/09/15 10:12:07;;;;;;;5.47;0.98;;;;;;;;;;5080848;28;20040;-75
2022/09/15 10:14:35;;;;;;;7.03;1.27;;;;;;;;;;5087070;28;20071;-75
2022/09/15 10:17:10;;;;;;;1.80;0.82;;;;;;;;;;5074928;28;20049;-75
2022/09/15 10:19:54;;;;;;;4.38;1.10;;;;;;;;;;5084782;28;20067;-75
2022/09/15 10:22:23;;;;;;;7.38;1.20;;;;;;;;;;5076566;28;20049;-75
2022/09/15 10:24:50;;;;;;;5.38;1.15;;;;;;;;;;5088219;28;20057;-75
2022/09/15 10:27:19;;;;;;;5.85;1.35;;;;;;;;;;5089958;28;20064;-75
2022/09/15 10:29:46;;;;;;;3.55;1.00;;;;;;;;;;5085574;28;22884;-76
2022/09/15 10:32:24;;;;;;;5.43;1.30;;;;;;;;;;5088782;28;20037;-75
2022/09/15 10:34:59;;;;;;;9.65;1.17;;;;;;;;;;5076499;28;20056;-74
2022/09/15 10:37:30;;;;;;;4.15;1.23;;;;;;;;;;5081493;28;20095;-74
2022/09/15 10:40:00;;;;;;;8.68;1.35;;;;;;;;;;5075981;28;20049;-75
2022/09/15 10:42:54;;;;;;;6.65;1.30;;;;;;;;;;5071541;28;21051;-75
2022/09/15 10:45:21;;;;;;;;;;;;;;;;;;5075790;28;20037;-74
2022/09/15 10:48:02;;;;;;;7.65;1.20;;;;;;;;;;5082368;28;43792;-76
2022/09/15 10:50:47;;;;;;;5.10;1.02;;;;;;;;;;5082966;28;20041;-75
2022/09/15 10:53:33;;;;;;;4.28;1.00;;;;;;;;;;5075364;28;20091;-75
2022/09/15 10:56:06;;;;;;;4.18;1.10;;;;;;;;;;5087953;28;20046;-75
2022/09/15 10:58:39;;;;;;;4.53;0.73;;;;;;;;;;5088268;28;20049;-76
2022/09/15 11:01:26;;;;;;;6.55;0.88;;;;;;;;;;5095777;28;20103;-74
2022/09/15 11:04:05;;;;;;;9.20;1.20;;;;;;;;;;5084224;28;20069;-75
2022/09/15 11:06:41;;;;;;;8.13;1.45;;;;;;;;;;5085152;28;20123;-75
2022/09/15 11:09:13;;;;;;;3.60;0.90;;;;;;;;;;5082680;28;20109;-75
2022/09/15 11:11:59;;;;;;;6.65;1.50;;;;;;;;;;5089782;28;20041;-75
2022/09/15 11:14:40;;;;;;;7.13;1.13;;;;;;;;;;5089445;28;20057;-75
2022/09/15 11:17:16;;;;;;;6.90;1.08;;;;;;;;;;5077647;28;20068;-75
2022/09/15 11:19:54;;;;;;;5.25;1.13;;;;;;;;;;5084317;28;20057;-75
2022/09/15 11:22:31;;;;;;;6.85;1.33;;;;;;;;;;5079972;28;20041;-75
2022/09/15 11:25:03;;;;;;;7.68;1.30;;;;;;;;;;5075454;28;20050;-74
2022/09/15 11:27:30;;;;;;;7.40;1.27;;;;;;;;;;5081843;28;20057;-74
2022/09/15 11:30:17;;;;;;;7.55;1.33;;;;;;;;;;5080973;28;20309;-75
2022/09/15 11:33:00;;;;;;;5.65;1.35;;;;;;;;;;5079126;28;20049;-75
2022/09/15 11:35:54;;;;;;;6.85;1.13;;;;;;;;;;5076872;28;20060;-75
2022/09/15 11:38:21;;;;;;;;;;;;;;;;;;5079515;28;20049;-76
2022/09/15 11:40:52;;;;;;;6.45;1.27;;;;;;;;;;5076099;28;45077;-74
2022/09/15 11:43:38;;;;;;;4.13;0.98;;;;;;;;;;5079294;28;20049;-75
2022/09/15 11:46:10;;;;;;;7.32;1.20;;;;;;;;;;5077296;28;20041;-75
2022/09/15 11:48:44;;;;;;;8.15;1.08;;;;;;;;;;5072248;28;20048;-75
2022/09/15 11:51:14;;;;;;;9.68;1.10;;;;;;;;;;5073593;28;20530;-75
2022/09/15 11:53:47;;;;;;;5.45;1.13;;;;;;;;;;5079313;28;20048;-74
2022/09/15 11:56:25;;;;;;;9.20;1.40;;;;;;;;;;5074891;28;20068;-75
2022/09/15 11:58:52;;;;;;;5.07;1.10;;;;;;;;;;5073810;28;20057;-74
2022/09/15 12:01:21;;;;;;;5.90;1.23;;;;;;;;;;5077826;28;20048;-75
2022/09/15 12:04:01;;;;;;;6.40;1.05;;;;;;;;;;5083615;28;20182;-75
2022/09/15 12:06:46;;;;;;;3.80;1.00;;;;;;;;;;5076113;28;20097;-74
2022/09/15 12:09:14;;;;;;;5.45;0.85;;;;;;;;;;5074930;28;20088;-75
2022/09/15 12:11:46;;;;;;;4.00;0.95;;;;;;;;;;5077954;28;20053;-75
2022/09/15 12:14:15;;;;;;;4.10;1.55;;;;;;;;;;5092509;28;20048;-74
2022/09/15 12:16:43;;;;;;;5.75;0.98;;;;;;;;;;5080400;28;20103;-74
2022/09/15 12:19:17;;;;;;;2.28;0.90;;;;;;;;;;5072045;28;20111;-74
2022/09/15 12:21:54;;;;;;;2.28;0.80;;;;;;;;;;5074411;28;20104;-74
2022/09/15 12:24:37;;;;;;;3.00;0.90;;;;;;;;;;5073937;28;20951;-74
2022/09/15 12:27:04;;;;;;;1.73;0.63;;;;;;;;;;5078372;28;20049;-75
2022/09/15 12:29:39;;;;;;;7.00;0.70;;;;;;;;;;5078835;28;20068;-74
2022/09/15 12:32:25;;;;;;;3.08;0.77;;;;;;;;;;5072610;28;20084;-74
2022/09/15 12:34:58;;;;;;;1.33;0.50;;;;;;;;;;5075809;28;20045;-76
2022/09/15 12:37:25;;;;;;;;;;;;;;;;;;5082568;28;20138;-75
2022/09/15 12:39:52;;;;;;;3.72;0.82;;;;;;;;;;5084033;28;44988;-76
2022/09/15 12:42:30;;;;;;;6.05;1.02;;;;;;;;;;5074378;28;20805;-74
2022/09/15 12:44:59;;;;;;;1.45;0.90;;;;;;;;;;5076792;28;20071;-73
2022/09/15 12:47:28;;;;;;;2.97;0.77;;;;;;;;;;5075391;28;20060;-74
2022/09/15 12:49:58;;;;;;;4.00;0.98;;;;;;;;;;5075264;28;20053;-74
2022/09/15 12:52:25;;;;;;;3.88;0.80;;;;;;;;;;5082475;28;20060;-76
2022/09/15 12:54:54;;;;;;;12.43;1.33;;;;;;;;;;5080305;28;20033;-74
2022/09/15 12:57:27;;;;;;;6.18;0.82;;;;;;;;;;5082773;28;20057;-75
2022/09/15 12:59:54;;;;;;;;;;;;;;;;;;5076521;28;20103;-75
2022/09/15 13:02:40;;;;;;;9.27;0.90;;;;;;;;;;5074008;28;44133;-74
2022/09/15 13:05:10;;;;;;;4.82;0.60;;;;;;;;;;5084156;28;20890;-74
2022/09/15 13:07:52;;;;;;;6.97;0.82;;;;;;;;;;5080116;28;20033;-74
2022/09/15 13:10:45;;;;;;;3.72;0.90;;;;;;;;;;5078028;28;20061;-74
2022/09/15 13:13:12;;;;;;;;;;;;;;;;;;5078528;28;20045;-74
2022/09/15 13:15:44;;;;;;;2.03;0.70;;;;;;;;;;5078281;28;43732;-74
2022/09/15 13:18:13;;;;;;;3.55;0.80;;;;;;;;;;5076808;28;20106;-75
2022/09/15 13:20:43;;;;;;;4.97;0.82;;;;;;;;;;5075471;28;20057;-75
2022/09/15 13:23:13;;;;;;;4.88;0.90;;;;;;;;;;5078054;28;20103;-74
2022/09/15 13:25:41;;;;;;;4.82;0.77;;;;;;;;;;5077827;28;20068;-75
2022/09/15 13:28:08;;;;;;;3.70;1.10;;;;;;;;;;5081259;28;20118;-75
2022/09/15 13:30:35;;;;;;;5.53;1.08;;;;;;;;;;5071317;28;22875;-74
2022/09/15 13:33:21;;;;;;;5.45;1.25;;;;;;;;;;5073134;28;20080;-74
2022/09/15 13:35:51;;;;;;;4.38;0.88;;;;;;;;;;5079777;28;20056;-75
2022/09/15 13:38:24;;;;;;;4.30;1.20;;;;;;;;;;5080728;28;20061;-75
2022/09/15 13:40:57;;;;;;;3.42;1.00;;;;;;;;;;5077447;28;20064;-75
2022/09/15 13:43:38;;;;;;;4.80;0.95;;;;;;;;;;5077895;28;20049;-75
2022/09/15 13:46:19;;;;;;;8.00;1.17;;;;;;;;;;5077467;28;20048;-75
2022/09/15 13:49:06;;;;;;;6.43;1.15;;;;;;;;;;5074692;28;20059;-74
2022/09/15 13:51:34;;;;;;;7.78;1.08;;;;;;;;;;5072894;28;20049;-75
2022/09/15 13:54:05;;;;;;;6.72;1.20;;;;;;;;;;5070709;28;20046;-73
2022/09/15 13:56:40;;;;;;;5.97;1.25;;;;;;;;;;5072724;28;20049;-74
2022/09/15 13:59:14;;;;;;;5.28;1.30;;;;;;;;;;5075524;28;20037;-74
2022/09/15 14:01:43;;;;;;;4.32;1.23;;;;;;;;;;5076578;28;20049;-75
2022/09/15 14:04:13;;;;;;;2.97;1.02;;;;;;;;;;5075883;28;20774;-76
2022/09/15 14:06:42;;;;;;;5.57;1.10;;;;;;;;;;5078380;28;20045;-74
2022/09/15 14:09:13;;;;;;;6.00;1.58;;;;;;;;;;5085049;28;20044;-75
2022/09/15 14:11:42;;;;;;;6.60;1.02;;;;;;;;;;5074015;28;20056;-74
2022/09/15 14:14:10;;;;;;;6.38;1.00;;;;;;;;;;5082460;28;20052;-74
2022/09/15 14:16:38;;;;;;;8.90;1.10;;;;;;;;;;5078300;28;20049;-74
2022/09/15 14:19:21;;;;;;;5.78;0.98;;;;;;;;;;5081342;28;20036;-75
2022/09/15 14:21:48;;;;;;;8.25;1.25;;;;;;;;;;5078393;28;20048;-74
2022/09/15 14:24:20;;;;;;;6.85;1.42;;;;;;;;;;5073146;28;20083;-75
2022/09/15 14:26:48;;;;;;;2.67;1.02;;;;;;;;;;5069198;28;20092;-74
2022/09/15 14:29:18;;;;;;;6.85;1.40;;;;;;;;;;5076714;28;20053;-74
2022/09/15 14:31:46;;;;;;;3.13;0.90;;;;;;;;;;5067824;28;20132;-75
2022/09/15 14:34:18;;;;;;;7.40;1.15;;;;;;;;;;5071882;28;20183;-74
2022/09/15 14:36:45;;;;;;;2.55;0.95;;;;;;;;;;5069311;28;20049;-74
2022/09/15 14:39:22;;;;;;;5.03;1.23;;;;;;;;;;5065940;28;20583;-73
2022/09/15 14:41:50;;;;;;;4.93;1.05;;;;;;;;;;5073043;28;20045;-75
2022/09/15 14:44:17;;;;;;;5.07;1.10;;;;;;;;;;5068258;28;20103;-75
2022/09/15 14:47:12;;;;;;;4.43;0.73;;;;;;;;;;5075072;28;20080;-74
2022/09/15 14:49:39;;;;;;;0.93;0.70;;;;;;;;;;5063334;28;20070;-74
2022/09/15 14:52:15;;;;;;;1.60;0.52;;;;;;;;;;5072607;28;20103;-74
2022/09/15 14:54:42;;;;;;;4.28;1.00;;;;;;;;;;5066906;28;20132;-74
2022/09/15 14:57:10;;;;;;;6.60;1.13;;;;;;;;;;5074794;28;20103;-74
2022/09/15 14:59:41;;;;;;;5.28;1.13;;;;;;;;;;5081704;28;20052;-74
2022/09/15 15:02:20;;;;;;;4.05;0.93;;;;;;;;;;5079395;28;20098;-74
2022/09/15 15:04:51;;;;;;;1.85;0.63;;;;;;;;;;5088388;28;20099;-74